sensor_id;sensor_type;location;lat;lon;timestamp;temperature;humidity
59301;DHT22;45073;52.740;6.784;2023-11-21T00:00:16;8.80;99.90
59301;DHT22;45073;52.740;6.784;2023-11-21T00:02:44;8.80;99.90
59301;DHT22;45073;52.740;6.784;2023-11-21T00:05:11;8.80;99.90
59301;DHT22;45073;52.740;6.784;2023-11-21T00:07:40;8.80;99.90
59301;DHT22;45073;52.740;6.784;2023-11-21T00:10:06;8.80;99.90
59301;DHT22;45073;52.740;6.784;2023-11-21T00:12:33;8.80;99.90
59301;DHT22;45073;52.740;6.784;2023-11-21T00:14:59;8.80;99.90
59301;DHT22;45073;52.740;6.784;2023-11-21T00:17:25;8.80;99.90
59301;DHT22;45073;52.740;6.784;2023-11-21T00:19:51;8.80;99.90
59301;DHT22;45073;52.740;6.784;2023-11-21T00:22:19;8.80;99.90
59301;DHT22;45073;52.740;6.784;2023-11-21T00:24:45;8.70;99.90
59301;DHT22;45073;52.740;6.784;2023-11-21T00:27:11;8.70;99.90
59301;DHT22;45073;52.740;6.784;2023-11-21T00:29:37;8.70;99.90
59301;DHT22;45073;52.740;6.784;2023-11-21T00:32:04;8.70;99.90
59301;DHT22;45073;52.740;6.784;2023-11-21T00:34:31;8.70;99.90
59301;DHT22;45073;52.740;6.784;2023-11-21T00:36:57;8.70;99.90
59301;DHT22;45073;52.740;6.784;2023-11-21T00:39:22;8.70;99.90
59301;DHT22;45073;52.740;6.784;2023-11-21T00:41:48;8.70;99.90
59301;DHT22;45073;52.740;6.784;2023-11-21T00:44:14;8.70;99.90
59301;DHT22;45073;52.740;6.784;2023-11-21T00:46:39;8.70;99.90
59301;DHT22;45073;52.740;6.784;2023-11-21T00:49:05;8.70;99.90
59301;DHT22;45073;52.740;6.784;2023-11-21T00:51:30;8.70;99.90
59301;DHT22;45073;52.740;6.784;2023-11-21T00:53:57;8.70;99.90
59301;DHT22;45073;52.740;6.784;2023-11-21T00:56:23;8.70;99.90
59301;DHT22;45073;52.740;6.784;2023-11-21T00:58:49;8.80;99.90
59301;DHT22;45073;52.740;6.784;2023-11-21T01:01:18;8.80;99.90
59301;DHT22;45073;52.740;6.784;2023-11-21T01:03:46;8.80;99.90
59301;DHT22;45073;52.740;6.784;2023-11-21T01:06:12;8.80;99.90
59301;DHT22;45073;52.740;6.784;2023-11-21T01:08:38;8.80;99.90
59301;DHT22;45073;52.740;6.784;2023-11-21T01:11:04;8.80;99.90
59301;DHT22;45073;52.740;6.784;2023-11-21T01:13:30;8.90;99.90
59301;DHT22;45073;52.740;6.784;2023-11-21T01:15:56;8.80;99.90
59301;DHT22;45073;52.740;6.784;2023-11-21T01:18:21;8.90;99.90
59301;DHT22;45073;52.740;6.784;2023-11-21T01:20:47;8.90;99.90
59301;DHT22;45073;52.740;6.784;2023-11-21T01:23:13;8.90;99.90
59301;DHT22;45073;52.740;6.784;2023-11-21T01:25:39;8.90;99.90
59301;DHT22;45073;52.740;6.784;2023-11-21T01:28:06;8.90;99.90
59301;DHT22;45073;52.740;6.784;2023-11-21T01:30:32;8.90;99.90
59301;DHT22;45073;52.740;6.784;2023-11-21T01:32:58;8.90;99.90
59301;DHT22;45073;52.740;6.784;2023-11-21T01:35:24;8.90;99.90
59301;DHT22;45073;52.740;6.784;2023-11-21T01:37:50;8.90;99.90
59301;DHT22;45073;52.740;6.784;2023-11-21T01:40:15;8.90;99.90
59301;DHT22;45073;52.740;6.784;2023-11-21T01:42:42;8.90;99.90
59301;DHT22;45073;52.740;6.784;2023-11-21T01:45:09;8.90;99.90
59301;DHT22;45073;52.740;6.784;2023-11-21T01:47:36;8.90;99.90
59301;DHT22;45073;52.740;6.784;2023-11-21T01:50:03;8.90;99.90
59301;DHT22;45073;52.740;6.784;2023-11-21T01:52:32;9.00;99.90
59301;DHT22;45073;52.740;6.784;2023-11-21T01:54:59;9.00;99.90
59301;DHT22;45073;52.740;6.784;2023-11-21T01:57:25;8.90;99.90
59301;DHT22;45073;52.740;6.784;2023-11-21T01:59:53;9.00;99.90
59301;DHT22;45073;52.740;6.784;2023-11-21T02:02:19;9.00;99.90
59301;DHT22;45073;52.740;6.784;2023-11-21T02:04:45;9.00;99.90
59301;DHT22;45073;52.740;6.784;2023-11-21T02:07:11;9.00;99.90
59301;DHT22;45073;52.740;6.784;2023-11-21T02:09:37;9.00;99.90
59301;DHT22;45073;52.740;6.784;2023-11-21T02:12:08;9.00;99.90
59301;DHT22;45073;52.740;6.784;2023-11-21T02:14:36;9.00;99.90
59301;DHT22;45073;52.740;6.784;2023-11-21T02:17:02;9.00;99.90
59301;DHT22;45073;52.740;6.784;2023-11-21T02:19:29;9.00;99.90
59301;DHT22;45073;52.740;6.784;2023-11-21T02:21:57;9.00;99.90
59301;DHT22;45073;52.740;6.784;2023-11-21T02:24:28;9.10;99.90
59301;DHT22;45073;52.740;6.784;2023-11-21T02:26:54;9.10;99.90
59301;DHT22;45073;52.740;6.784;2023-11-21T02:29:21;9.10;99.90
59301;DHT22;45073;52.740;6.784;2023-11-21T02:31:56;9.10;99.90
59301;DHT22;45073;52.740;6.784;2023-11-21T02:34:22;9.10;99.90
59301;DHT22;45073;52.740;6.784;2023-11-21T02:36:48;9.10;99.90
59301;DHT22;45073;52.740;6.784;2023-11-21T02:39:17;9.20;99.90
59301;DHT22;45073;52.740;6.784;2023-11-21T02:41:44;9.10;99.90
59301;DHT22;45073;52.740;6.784;2023-11-21T02:44:10;9.10;99.90
59301;DHT22;45073;52.740;6.784;2023-11-21T02:46:36;9.10;99.90
59301;DHT22;45073;52.740;6.784;2023-11-21T02:49:03;9.10;99.90
59301;DHT22;45073;52.740;6.784;2023-11-21T02:51:30;9.20;99.90
59301;DHT22;45073;52.740;6.784;2023-11-21T02:53:56;9.10;99.90
59301;DHT22;45073;52.740;6.784;2023-11-21T02:56:26;9.10;99.90
59301;DHT22;45073;52.740;6.784;2023-11-21T02:58:52;9.10;99.90
59301;DHT22;45073;52.740;6.784;2023-11-21T03:01:18;9.10;99.90
59301;DHT22;45073;52.740;6.784;2023-11-21T03:03:43;9.10;99.90
59301;DHT22;45073;52.740;6.784;2023-11-21T03:06:09;9.20;99.90
59301;DHT22;45073;52.740;6.784;2023-11-21T03:08:35;9.20;99.90
59301;DHT22;45073;52.740;6.784;2023-11-21T03:11:01;9.20;99.90
59301;DHT22;45073;52.740;6.784;2023-11-21T03:13:28;9.20;99.90
59301;DHT22;45073;52.740;6.784;2023-11-21T03:15:54;9.20;99.90
59301;DHT22;45073;52.740;6.784;2023-11-21T03:18:20;9.20;99.90
59301;DHT22;45073;52.740;6.784;2023-11-21T03:20:47;9.20;99.90
59301;DHT22;45073;52.740;6.784;2023-11-21T03:23:13;9.20;99.90
59301;DHT22;45073;52.740;6.784;2023-11-21T03:25:38;9.20;99.90
59301;DHT22;45073;52.740;6.784;2023-11-21T03:28:04;9.20;99.90
59301;DHT22;45073;52.740;6.784;2023-11-21T03:30:30;9.20;99.90
59301;DHT22;45073;52.740;6.784;2023-11-21T03:32:56;9.20;99.90
59301;DHT22;45073;52.740;6.784;2023-11-21T03:35:22;9.20;99.90
59301;DHT22;45073;52.740;6.784;2023-11-21T03:37:48;9.20;99.90
59301;DHT22;45073;52.740;6.784;2023-11-21T03:40:14;9.20;99.90
59301;DHT22;45073;52.740;6.784;2023-11-21T03:42:40;9.20;99.90
59301;DHT22;45073;52.740;6.784;2023-11-21T03:45:06;9.20;99.90
59301;DHT22;45073;52.740;6.784;2023-11-21T03:47:32;9.20;99.90
59301;DHT22;45073;52.740;6.784;2023-11-21T03:49:58;9.20;99.90
59301;DHT22;45073;52.740;6.784;2023-11-21T03:52:24;9.20;99.90
59301;DHT22;45073;52.740;6.784;2023-11-21T03:54:50;9.20;99.90
59301;DHT22;45073;52.740;6.784;2023-11-21T03:57:15;9.20;99.90
59301;DHT22;45073;52.740;6.784;2023-11-21T03:59:42;9.20;99.90
59301;DHT22;45073;52.740;6.784;2023-11-21T04:02:08;9.20;99.90
59301;DHT22;45073;52.740;6.784;2023-11-21T04:04:35;9.20;99.90
59301;DHT22;45073;52.740;6.784;2023-11-21T04:07:00;9.20;99.90
59301;DHT22;45073;52.740;6.784;2023-11-21T04:09:26;9.30;99.90
59301;DHT22;45073;52.740;6.784;2023-11-21T04:11:52;9.30;99.90
59301;DHT22;45073;52.740;6.784;2023-11-21T04:14:18;9.30;99.90
59301;DHT22;45073;52.740;6.784;2023-11-21T04:16:44;9.30;99.90
59301;DHT22;45073;52.740;6.784;2023-11-21T04:19:10;9.30;99.90
59301;DHT22;45073;52.740;6.784;2023-11-21T04:21:37;9.30;99.90
59301;DHT22;45073;52.740;6.784;2023-11-21T04:24:03;9.30;99.90
59301;DHT22;45073;52.740;6.784;2023-11-21T04:26:29;9.30;99.90
59301;DHT22;45073;52.740;6.784;2023-11-21T04:28:55;9.30;99.90
59301;DHT22;45073;52.740;6.784;2023-11-21T04:31:20;9.30;99.90
59301;DHT22;45073;52.740;6.784;2023-11-21T04:33:46;9.30;99.90
59301;DHT22;45073;52.740;6.784;2023-11-21T04:36:12;9.30;99.90
59301;DHT22;45073;52.740;6.784;2023-11-21T04:38:37;9.30;99.90
59301;DHT22;45073;52.740;6.784;2023-11-21T04:41:03;9.30;99.90
59301;DHT22;45073;52.740;6.784;2023-11-21T04:43:29;9.30;99.90
59301;DHT22;45073;52.740;6.784;2023-11-21T04:45:55;9.30;99.90
59301;DHT22;45073;52.740;6.784;2023-11-21T04:48:20;9.30;99.90
59301;DHT22;45073;52.740;6.784;2023-11-21T04:50:46;9.20;99.90
59301;DHT22;45073;52.740;6.784;2023-11-21T04:53:12;9.30;99.90
59301;DHT22;45073;52.740;6.784;2023-11-21T04:55:40;9.30;99.90
59301;DHT22;45073;52.740;6.784;2023-11-21T04:58:07;9.30;99.90
59301;DHT22;45073;52.740;6.784;2023-11-21T05:00:33;9.30;99.90
59301;DHT22;45073;52.740;6.784;2023-11-21T05:02:59;9.30;99.90
59301;DHT22;45073;52.740;6.784;2023-11-21T05:05:26;9.30;99.90
59301;DHT22;45073;52.740;6.784;2023-11-21T05:07:52;9.30;99.90
59301;DHT22;45073;52.740;6.784;2023-11-21T05:10:19;9.30;99.90
59301;DHT22;45073;52.740;6.784;2023-11-21T05:12:45;9.30;99.90
59301;DHT22;45073;52.740;6.784;2023-11-21T05:15:14;9.30;99.90
59301;DHT22;45073;52.740;6.784;2023-11-21T05:17:40;9.30;99.90
59301;DHT22;45073;52.740;6.784;2023-11-21T05:20:17;9.30;99.90
59301;DHT22;45073;52.740;6.784;2023-11-21T05:22:49;9.30;99.90
59301;DHT22;45073;52.740;6.784;2023-11-21T05:25:15;9.40;99.90
59301;DHT22;45073;52.740;6.784;2023-11-21T05:27:46;9.40;99.90
59301;DHT22;45073;52.740;6.784;2023-11-21T05:30:13;9.30;99.90
59301;DHT22;45073;52.740;6.784;2023-11-21T05:32:40;9.40;99.90
59301;DHT22;45073;52.740;6.784;2023-11-21T05:35:08;9.30;99.90
59301;DHT22;45073;52.740;6.784;2023-11-21T05:37:40;9.40;99.90
59301;DHT22;45073;52.740;6.784;2023-11-21T05:40:07;9.40;99.90
59301;DHT22;45073;52.740;6.784;2023-11-21T05:42:37;9.40;99.90
59301;DHT22;45073;52.740;6.784;2023-11-21T05:45:04;9.40;99.90
59301;DHT22;45073;52.740;6.784;2023-11-21T05:47:45;9.40;99.90
59301;DHT22;45073;52.740;6.784;2023-11-21T05:50:13;9.40;99.90
59301;DHT22;45073;52.740;6.784;2023-11-21T05:52:46;9.40;99.90
59301;DHT22;45073;52.740;6.784;2023-11-21T05:55:12;9.50;99.90
59301;DHT22;45073;52.740;6.784;2023-11-21T05:57:39;9.40;99.90
59301;DHT22;45073;52.740;6.784;2023-11-21T06:00:05;9.50;99.90
59301;DHT22;45073;52.740;6.784;2023-11-21T06:02:53;9.40;99.90
59301;DHT22;45073;52.740;6.784;2023-11-21T06:05:19;9.40;99.90
59301;DHT22;45073;52.740;6.784;2023-11-21T06:07:46;9.50;99.90
59301;DHT22;45073;52.740;6.784;2023-11-21T06:10:12;9.50;99.90
59301;DHT22;45073;52.740;6.784;2023-11-21T06:12:40;9.50;99.90
59301;DHT22;45073;52.740;6.784;2023-11-21T06:15:09;9.50;99.90
59301;DHT22;45073;52.740;6.784;2023-11-21T06:17:35;9.50;99.90
59301;DHT22;45073;52.740;6.784;2023-11-21T06:20:03;9.50;99.90
59301;DHT22;45073;52.740;6.784;2023-11-21T06:22:41;9.50;99.90
59301;DHT22;45073;52.740;6.784;2023-11-21T06:25:07;9.50;99.90
59301;DHT22;45073;52.740;6.784;2023-11-21T06:27:37;9.50;99.90
59301;DHT22;45073;52.740;6.784;2023-11-21T06:30:03;9.50;99.90
59301;DHT22;45073;52.740;6.784;2023-11-21T06:32:30;9.50;99.90
59301;DHT22;45073;52.740;6.784;2023-11-21T06:34:56;9.50;99.90
59301;DHT22;45073;52.740;6.784;2023-11-21T06:37:26;9.60;99.90
59301;DHT22;45073;52.740;6.784;2023-11-21T06:39:52;9.50;99.90
59301;DHT22;45073;52.740;6.784;2023-11-21T06:42:18;9.50;99.90
59301;DHT22;45073;52.740;6.784;2023-11-21T06:44:47;9.50;99.90
59301;DHT22;45073;52.740;6.784;2023-11-21T06:47:14;9.60;99.90
59301;DHT22;45073;52.740;6.784;2023-11-21T06:49:42;9.50;99.90
59301;DHT22;45073;52.740;6.784;2023-11-21T06:52:07;9.50;99.90
59301;DHT22;45073;52.740;6.784;2023-11-21T06:54:33;9.60;99.90
59301;DHT22;45073;52.740;6.784;2023-11-21T06:57:00;9.60;99.90
59301;DHT22;45073;52.740;6.784;2023-11-21T06:59:25;9.60;99.90
59301;DHT22;45073;52.740;6.784;2023-11-21T07:01:53;9.60;99.90
59301;DHT22;45073;52.740;6.784;2023-11-21T07:04:19;9.50;99.90
59301;DHT22;45073;52.740;6.784;2023-11-21T07:06:45;9.60;99.90
59301;DHT22;45073;52.740;6.784;2023-11-21T07:09:11;9.60;99.90
59301;DHT22;45073;52.740;6.784;2023-11-21T07:11:37;9.60;99.90
59301;DHT22;45073;52.740;6.784;2023-11-21T07:14:07;9.60;99.90
59301;DHT22;45073;52.740;6.784;2023-11-21T07:16:39;9.60;99.90
59301;DHT22;45073;52.740;6.784;2023-11-21T07:19:05;9.60;99.90
59301;DHT22;45073;52.740;6.784;2023-11-21T07:21:36;9.60;99.90
59301;DHT22;45073;52.740;6.784;2023-11-21T07:24:03;9.60;99.90
59301;DHT22;45073;52.740;6.784;2023-11-21T07:26:30;9.60;99.90
59301;DHT22;45073;52.740;6.784;2023-11-21T07:28:56;9.60;99.90
59301;DHT22;45073;52.740;6.784;2023-11-21T07:31:22;9.60;99.90
59301;DHT22;45073;52.740;6.784;2023-11-21T07:33:49;9.60;99.90
59301;DHT22;45073;52.740;6.784;2023-11-21T07:36:15;9.60;99.90
59301;DHT22;45073;52.740;6.784;2023-11-21T07:38:42;9.60;99.90
59301;DHT22;45073;52.740;6.784;2023-11-21T07:41:08;9.70;99.90
59301;DHT22;45073;52.740;6.784;2023-11-21T07:43:35;9.70;99.90
59301;DHT22;45073;52.740;6.784;2023-11-21T07:46:02;9.70;99.90
59301;DHT22;45073;52.740;6.784;2023-11-21T07:48:31;9.70;99.90
59301;DHT22;45073;52.740;6.784;2023-11-21T07:50:57;9.70;99.90
59301;DHT22;45073;52.740;6.784;2023-11-21T07:53:24;9.70;99.90
59301;DHT22;45073;52.740;6.784;2023-11-21T07:55:51;9.70;99.90
59301;DHT22;45073;52.740;6.784;2023-11-21T07:58:17;9.70;99.90
59301;DHT22;45073;52.740;6.784;2023-11-21T08:00:43;9.80;99.90
59301;DHT22;45073;52.740;6.784;2023-11-21T08:03:09;9.80;99.90
59301;DHT22;45073;52.740;6.784;2023-11-21T08:05:34;9.80;99.90
59301;DHT22;45073;52.740;6.784;2023-11-21T08:08:00;9.80;99.90
59301;DHT22;45073;52.740;6.784;2023-11-21T08:10:26;9.80;99.90
59301;DHT22;45073;52.740;6.784;2023-11-21T08:12:52;9.80;99.90
59301;DHT22;45073;52.740;6.784;2023-11-21T08:15:19;9.90;99.90
59301;DHT22;45073;52.740;6.784;2023-11-21T08:17:46;9.90;99.90
59301;DHT22;45073;52.740;6.784;2023-11-21T08:20:12;9.90;99.90
59301;DHT22;45073;52.740;6.784;2023-11-21T08:22:37;9.90;99.90
59301;DHT22;45073;52.740;6.784;2023-11-21T08:25:06;10.00;99.90
59301;DHT22;45073;52.740;6.784;2023-11-21T08:27:33;10.00;99.90
59301;DHT22;45073;52.740;6.784;2023-11-21T08:30:03;10.00;99.90
59301;DHT22;45073;52.740;6.784;2023-11-21T08:32:29;10.10;99.90
59301;DHT22;45073;52.740;6.784;2023-11-21T08:34:57;10.10;99.90
59301;DHT22;45073;52.740;6.784;2023-11-21T08:37:23;10.10;99.90
59301;DHT22;45073;52.740;6.784;2023-11-21T08:39:49;10.10;99.90
59301;DHT22;45073;52.740;6.784;2023-11-21T08:42:15;10.10;99.90
59301;DHT22;45073;52.740;6.784;2023-11-21T08:44:41;10.20;99.90
59301;DHT22;45073;52.740;6.784;2023-11-21T08:47:07;10.20;99.90
59301;DHT22;45073;52.740;6.784;2023-11-21T08:49:33;10.30;99.90
59301;DHT22;45073;52.740;6.784;2023-11-21T08:51:59;10.30;99.90
59301;DHT22;45073;52.740;6.784;2023-11-21T08:54:25;10.30;99.90
59301;DHT22;45073;52.740;6.784;2023-11-21T08:56:54;10.30;99.90
59301;DHT22;45073;52.740;6.784;2023-11-21T08:59:21;10.30;99.90
59301;DHT22;45073;52.740;6.784;2023-11-21T09:01:47;10.30;99.90
59301;DHT22;45073;52.740;6.784;2023-11-21T09:04:13;10.40;99.90
59301;DHT22;45073;52.740;6.784;2023-11-21T09:06:39;10.40;99.90
59301;DHT22;45073;52.740;6.784;2023-11-21T09:09:05;10.40;99.90
59301;DHT22;45073;52.740;6.784;2023-11-21T09:11:34;10.40;99.90
59301;DHT22;45073;52.740;6.784;2023-11-21T09:14:00;10.40;99.90
59301;DHT22;45073;52.740;6.784;2023-11-21T09:16:26;10.40;99.90
59301;DHT22;45073;52.740;6.784;2023-11-21T09:18:52;10.40;99.90
59301;DHT22;45073;52.740;6.784;2023-11-21T09:21:17;10.30;99.90
59301;DHT22;45073;52.740;6.784;2023-11-21T09:23:46;10.30;99.90
59301;DHT22;45073;52.740;6.784;2023-11-21T09:26:12;10.30;99.90
59301;DHT22;45073;52.740;6.784;2023-11-21T09:28:38;10.30;99.90
59301;DHT22;45073;52.740;6.784;2023-11-21T09:31:05;10.30;99.90
59301;DHT22;45073;52.740;6.784;2023-11-21T09:33:34;10.20;99.90
59301;DHT22;45073;52.740;6.784;2023-11-21T09:35:59;10.20;99.90
59301;DHT22;45073;52.740;6.784;2023-11-21T09:38:25;10.20;99.90
59301;DHT22;45073;52.740;6.784;2023-11-21T09:40:51;10.10;99.90
59301;DHT22;45073;52.740;6.784;2023-11-21T09:43:19;10.10;99.90
59301;DHT22;45073;52.740;6.784;2023-11-21T09:45:59;10.10;99.90
59301;DHT22;45073;52.740;6.784;2023-11-21T09:48:26;10.00;99.90
59301;DHT22;45073;52.740;6.784;2023-11-21T09:50:53;10.00;99.90
59301;DHT22;45073;52.740;6.784;2023-11-21T09:53:22;10.10;99.90
59301;DHT22;45073;52.740;6.784;2023-11-21T09:55:52;10.00;99.90
59301;DHT22;45073;52.740;6.784;2023-11-21T09:58:18;10.00;99.90
59301;DHT22;45073;52.740;6.784;2023-11-21T10:00:49;10.00;99.90
59301;DHT22;45073;52.740;6.784;2023-11-21T10:03:15;10.00;99.90
59301;DHT22;45073;52.740;6.784;2023-11-21T10:05:45;10.00;99.90
59301;DHT22;45073;52.740;6.784;2023-11-21T10:08:12;10.00;99.90
59301;DHT22;45073;52.740;6.784;2023-11-21T10:10:43;10.00;99.90
59301;DHT22;45073;52.740;6.784;2023-11-21T10:13:12;10.00;99.90
59301;DHT22;45073;52.740;6.784;2023-11-21T10:15:38;10.00;99.90
59301;DHT22;45073;52.740;6.784;2023-11-21T10:18:09;10.00;99.90
59301;DHT22;45073;52.740;6.784;2023-11-21T10:20:35;10.00;99.90
59301;DHT22;45073;52.740;6.784;2023-11-21T10:23:03;10.00;99.90
59301;DHT22;45073;52.740;6.784;2023-11-21T10:25:30;10.00;99.90
59301;DHT22;45073;52.740;6.784;2023-11-21T10:28:01;10.00;99.90
59301;DHT22;45073;52.740;6.784;2023-11-21T10:30:34;10.00;99.90
59301;DHT22;45073;52.740;6.784;2023-11-21T10:33:03;10.00;99.90
59301;DHT22;45073;52.740;6.784;2023-11-21T10:38:07;9.90;99.90
59301;DHT22;45073;52.740;6.784;2023-11-21T10:40:38;9.90;99.90
59301;DHT22;45073;52.740;6.784;2023-11-21T10:43:11;9.90;99.90
59301;DHT22;45073;52.740;6.784;2023-11-21T10:45:38;9.90;99.90
59301;DHT22;45073;52.740;6.784;2023-11-21T10:48:13;9.90;99.90
59301;DHT22;45073;52.740;6.784;2023-11-21T10:50:43;9.90;99.90
59301;DHT22;45073;52.740;6.784;2023-11-21T10:53:09;9.90;99.90
59301;DHT22;45073;52.740;6.784;2023-11-21T10:55:37;10.00;99.90
59301;DHT22;45073;52.740;6.784;2023-11-21T10:58:04;10.10;99.90
59301;DHT22;45073;52.740;6.784;2023-11-21T11:00:31;10.00;99.90
59301;DHT22;45073;52.740;6.784;2023-11-21T11:02:57;10.10;99.90
59301;DHT22;45073;52.740;6.784;2023-11-21T11:05:25;10.00;99.90
59301;DHT22;45073;52.740;6.784;2023-11-21T11:08:05;10.00;99.90
59301;DHT22;45073;52.740;6.784;2023-11-21T11:10:31;9.90;99.90
59301;DHT22;45073;52.740;6.784;2023-11-21T11:12:58;9.90;99.90
59301;DHT22;45073;52.740;6.784;2023-11-21T11:15:25;9.90;99.90
59301;DHT22;45073;52.740;6.784;2023-11-21T11:17:51;10.00;99.90
59301;DHT22;45073;52.740;6.784;2023-11-21T11:20:18;10.00;99.90
59301;DHT22;45073;52.740;6.784;2023-11-21T11:26:11;10.10;99.90
59301;DHT22;45073;52.740;6.784;2023-11-21T11:31:54;10.10;99.90
59301;DHT22;45073;52.740;6.784;2023-11-21T11:34:28;10.10;99.90
59301;DHT22;45073;52.740;6.784;2023-11-21T11:37:01;10.20;99.90
59301;DHT22;45073;52.740;6.784;2023-11-21T11:39:41;10.20;99.90
59301;DHT22;45073;52.740;6.784;2023-11-21T11:42:12;10.30;99.90
59301;DHT22;45073;52.740;6.784;2023-11-21T11:47:22;10.30;99.90
59301;DHT22;45073;52.740;6.784;2023-11-21T11:50:03;10.20;99.90
59301;DHT22;45073;52.740;6.784;2023-11-21T11:52:46;10.20;99.90
59301;DHT22;45073;52.740;6.784;2023-11-21T11:55:16;10.20;99.90
59301;DHT22;45073;52.740;6.784;2023-11-21T11:57:54;10.20;99.90
59301;DHT22;45073;52.740;6.784;2023-11-21T12:02:55;10.10;99.90
59301;DHT22;45073;52.740;6.784;2023-11-21T12:05:26;10.10;99.90
59301;DHT22;45073;52.740;6.784;2023-11-21T12:08:00;10.20;99.90
59301;DHT22;45073;52.740;6.784;2023-11-21T12:10:27;10.10;99.90
59301;DHT22;45073;52.740;6.784;2023-11-21T12:13:08;10.20;99.90
59301;DHT22;45073;52.740;6.784;2023-11-21T12:15:35;10.10;99.90
59301;DHT22;45073;52.740;6.784;2023-11-21T12:18:02;10.10;99.90
59301;DHT22;45073;52.740;6.784;2023-11-21T12:20:28;10.20;99.90
59301;DHT22;45073;52.740;6.784;2023-11-21T12:22:55;10.20;99.90
59301;DHT22;45073;52.740;6.784;2023-11-21T12:25:26;10.20;99.90
59301;DHT22;45073;52.740;6.784;2023-11-21T12:27:58;10.20;99.90
59301;DHT22;45073;52.740;6.784;2023-11-21T12:30:31;10.20;99.90
59301;DHT22;45073;52.740;6.784;2023-11-21T12:32:58;10.30;99.90
59301;DHT22;45073;52.740;6.784;2023-11-21T12:35:26;10.30;99.90
59301;DHT22;45073;52.740;6.784;2023-11-21T12:37:53;10.30;99.90
59301;DHT22;45073;52.740;6.784;2023-11-21T12:40:19;10.30;99.90
59301;DHT22;45073;52.740;6.784;2023-11-21T12:42:46;10.20;99.90
59301;DHT22;45073;52.740;6.784;2023-11-21T12:47:50;10.20;99.90
59301;DHT22;45073;52.740;6.784;2023-11-21T12:50:23;10.20;99.90
59301;DHT22;45073;52.740;6.784;2023-11-21T12:52:50;10.20;99.90
59301;DHT22;45073;52.740;6.784;2023-11-21T12:55:17;10.20;99.90
59301;DHT22;45073;52.740;6.784;2023-11-21T12:57:44;10.10;99.90
59301;DHT22;45073;52.740;6.784;2023-11-21T13:00:11;10.10;99.90
59301;DHT22;45073;52.740;6.784;2023-11-21T13:02:43;10.10;99.90
59301;DHT22;45073;52.740;6.784;2023-11-21T13:05:09;10.10;99.90
59301;DHT22;45073;52.740;6.784;2023-11-21T13:07:47;10.20;99.90
59301;DHT22;45073;52.740;6.784;2023-11-21T13:10:14;10.40;99.90
59301;DHT22;45073;52.740;6.784;2023-11-21T13:12:45;10.50;99.90
59301;DHT22;45073;52.740;6.784;2023-11-21T13:15:14;10.70;99.90
59301;DHT22;45073;52.740;6.784;2023-11-21T13:17:46;10.90;99.90
59301;DHT22;45073;52.740;6.784;2023-11-21T13:20:12;11.40;99.90
59301;DHT22;45073;52.740;6.784;2023-11-21T13:22:56;12.20;99.90
59301;DHT22;45073;52.740;6.784;2023-11-21T13:25:27;13.00;99.90
59301;DHT22;45073;52.740;6.784;2023-11-21T13:27:56;13.20;99.90
59301;DHT22;45073;52.740;6.784;2023-11-21T13:30:23;13.10;99.90
59301;DHT22;45073;52.740;6.784;2023-11-21T13:32:55;13.00;99.90
59301;DHT22;45073;52.740;6.784;2023-11-21T13:35:28;12.90;99.90
59301;DHT22;45073;52.740;6.784;2023-11-21T13:38:07;12.70;99.90
59301;DHT22;45073;52.740;6.784;2023-11-21T13:40:33;12.50;99.90
59301;DHT22;45073;52.740;6.784;2023-11-21T13:43:05;12.30;99.90
59301;DHT22;45073;52.740;6.784;2023-11-21T13:45:41;12.10;99.90
59301;DHT22;45073;52.740;6.784;2023-11-21T13:48:08;11.90;99.90
59301;DHT22;45073;52.740;6.784;2023-11-21T13:50:45;11.70;99.90
59301;DHT22;45073;52.740;6.784;2023-11-21T13:53:21;11.60;99.90
59301;DHT22;45073;52.740;6.784;2023-11-21T13:55:51;11.50;99.90
59301;DHT22;45073;52.740;6.784;2023-11-21T13:58:22;11.40;99.90
59301;DHT22;45073;52.740;6.784;2023-11-21T14:00:51;11.40;99.90
59301;DHT22;45073;52.740;6.784;2023-11-21T14:03:23;11.30;99.90
59301;DHT22;45073;52.740;6.784;2023-11-21T14:06:03;11.40;99.90
59301;DHT22;45073;52.740;6.784;2023-11-21T14:08:34;11.40;99.90
59301;DHT22;45073;52.740;6.784;2023-11-21T14:11:00;11.50;99.90
59301;DHT22;45073;52.740;6.784;2023-11-21T14:13:26;11.60;99.90
59301;DHT22;45073;52.740;6.784;2023-11-21T14:15:52;12.00;99.90
59301;DHT22;45073;52.740;6.784;2023-11-21T14:18:24;12.30;99.90
59301;DHT22;45073;52.740;6.784;2023-11-21T14:21:01;12.70;99.90
59301;DHT22;45073;52.740;6.784;2023-11-21T14:23:27;12.80;99.90
59301;DHT22;45073;52.740;6.784;2023-11-21T14:25:54;12.70;99.90
59301;DHT22;45073;52.740;6.784;2023-11-21T14:28:19;12.60;99.90
59301;DHT22;45073;52.740;6.784;2023-11-21T14:30:47;12.50;99.90
59301;DHT22;45073;52.740;6.784;2023-11-21T14:33:13;12.40;99.90
59301;DHT22;45073;52.740;6.784;2023-11-21T14:35:39;12.30;99.90
59301;DHT22;45073;52.740;6.784;2023-11-21T14:38:05;12.20;99.90
59301;DHT22;45073;52.740;6.784;2023-11-21T14:40:31;12.10;99.90
59301;DHT22;45073;52.740;6.784;2023-11-21T14:43:02;11.90;99.90
59301;DHT22;45073;52.740;6.784;2023-11-21T14:45:34;11.80;99.90
59301;DHT22;45073;52.740;6.784;2023-11-21T14:48:00;11.60;99.90
59301;DHT22;45073;52.740;6.784;2023-11-21T14:50:35;11.50;99.90
59301;DHT22;45073;52.740;6.784;2023-11-21T14:53:13;11.40;99.90
59301;DHT22;45073;52.740;6.784;2023-11-21T14:55:40;11.20;99.90
59301;DHT22;45073;52.740;6.784;2023-11-21T14:58:05;11.10;99.90
59301;DHT22;45073;52.740;6.784;2023-11-21T15:00:31;11.00;99.90
59301;DHT22;45073;52.740;6.784;2023-11-21T15:03:17;10.90;99.90
59301;DHT22;45073;52.740;6.784;2023-11-21T15:06:02;10.80;99.90
59301;DHT22;45073;52.740;6.784;2023-11-21T15:08:54;10.70;99.90
59301;DHT22;45073;52.740;6.784;2023-11-21T15:11:40;10.60;99.90
59301;DHT22;45073;52.740;6.784;2023-11-21T15:14:07;10.60;99.90
59301;DHT22;45073;52.740;6.784;2023-11-21T15:16:35;10.50;99.90
59301;DHT22;45073;52.740;6.784;2023-11-21T15:19:07;10.50;99.90
59301;DHT22;45073;52.740;6.784;2023-11-21T15:21:35;10.40;99.90
59301;DHT22;45073;52.740;6.784;2023-11-21T15:24:01;10.30;99.90
59301;DHT22;45073;52.740;6.784;2023-11-21T15:26:28;10.40;99.90
59301;DHT22;45073;52.740;6.784;2023-11-21T15:28:54;10.30;99.90
59301;DHT22;45073;52.740;6.784;2023-11-21T15:31:20;10.20;99.90
59301;DHT22;45073;52.740;6.784;2023-11-21T15:33:51;10.20;99.90
59301;DHT22;45073;52.740;6.784;2023-11-21T15:36:17;10.10;99.90
59301;DHT22;45073;52.740;6.784;2023-11-21T15:38:43;10.00;99.90
59301;DHT22;45073;52.740;6.784;2023-11-21T15:41:09;10.00;99.90
59301;DHT22;45073;52.740;6.784;2023-11-21T15:43:37;10.00;99.90
59301;DHT22;45073;52.740;6.784;2023-11-21T15:46:02;10.00;99.90
59301;DHT22;45073;52.740;6.784;2023-11-21T15:48:36;9.90;99.90
59301;DHT22;45073;52.740;6.784;2023-11-21T15:51:04;9.80;99.90
59301;DHT22;45073;52.740;6.784;2023-11-21T15:53:30;9.80;99.90
59301;DHT22;45073;52.740;6.784;2023-11-21T15:55:57;9.70;99.90
59301;DHT22;45073;52.740;6.784;2023-11-21T15:58:23;9.70;99.90
59301;DHT22;45073;52.740;6.784;2023-11-21T16:00:53;9.70;99.90